Terminal Aerodrome Forecast
Issued by NWS Albany, NY

Home | Current Version | Previous Version | Text Only | Print | Product List | Glossary On
Versions: 1 2 3 4 5 6 7 8 9 10 11 12 13 14 15 16 17 18 19 20 21
394
FTUS41 KALY 232349 CCA
TAFGFL
TAF COR
KGFL 232349Z 2400/2424 17006KT P6SM BKN040 OVC060 WS020/17035KT
     FM240400 19008KT P6SM VCSH BKN025 OVC035 WS020/18045KT
     FM240900 20010G18KT P6SM OVC025 PROB30 2409/2414 4SM -SHRA BR
      OVC015
     FM241400 21012G20KT 3SM SHRA BR BKN015 OVC025
     FM242200 20010G20KT 1 1/2SM +SHRA BR BKN007 OVC015=

USA.gov is the U.S. government's official web portal to all federal, state and local government web resources and services.